createdAt,value
2023-02-15T00:01:49.996Z,102456.69
2023-02-15T00:04:19.997Z,102461.06
2023-02-15T00:06:47.254Z,102461.94
2023-02-15T00:09:14.513Z,102461.94
2023-02-15T00:11:43.527Z,102466.28
2023-02-15T00:14:12.459Z,102464.56
2023-02-15T00:16:41.217Z,102461.94
2023-02-15T00:19:09.886Z,102457.59
2023-02-15T00:21:37.825Z,102453.25
2023-02-15T00:24:06.869Z,102446.31
2023-02-15T00:26:34.147Z,102442.84
2023-02-15T00:29:01.311Z,102438.50
2023-02-15T00:31:31.594Z,102440.25
2023-02-15T00:34:06.088Z,102437.63
2023-02-15T00:36:33.670Z,102435.03
2023-02-15T00:39:00.860Z,102430.72
2023-02-15T00:41:28.066Z,102430.72
2023-02-15T00:43:55.247Z,102434.19
2023-02-15T00:46:22.523Z,102433.31
2023-02-15T00:48:49.867Z,102435.09
2023-02-15T00:51:18.091Z,102438.59
2023-02-15T00:53:45.502Z,102436.88
2023-02-15T00:56:12.806Z,102437.72
2023-02-15T00:58:39.965Z,102433.41
2023-02-15T01:01:11.071Z,102438.63
2023-02-15T01:03:38.722Z,102436.00
2023-02-15T01:06:06.322Z,102433.44
2023-02-15T01:08:33.535Z,102429.94
2023-02-15T01:11:12.172Z,102429.03
2023-02-15T01:13:39.874Z,102422.13
2023-02-15T01:16:07.074Z,102413.44
2023-02-15T01:18:36.138Z,102416.06
2023-02-15T01:21:18.206Z,102408.25
2023-02-15T01:23:45.643Z,102405.66
2023-02-15T01:26:13.497Z,102401.31
2023-02-15T01:28:40.664Z,102397.84
2023-02-15T01:31:13.194Z,102397.84
2023-02-15T01:33:40.448Z,102397.84
2023-02-15T01:36:07.668Z,102391.78
2023-02-15T01:38:35.782Z,102390.03
2023-02-15T01:41:21.355Z,102395.28
2023-02-15T01:43:55.061Z,102386.56
2023-02-15T01:46:35.813Z,102379.66
2023-02-15T01:49:09.526Z,102371.84
2023-02-15T01:51:38.555Z,102374.44
2023-02-15T01:54:11.368Z,102373.59
2023-02-15T01:56:40.082Z,102372.72
2023-02-15T01:59:12.842Z,102362.31
2023-02-15T02:01:40.163Z,102359.72
2023-02-15T02:04:12.993Z,102357.09
2023-02-15T02:06:40.700Z,102350.19
2023-02-15T02:09:08.156Z,102351.91
2023-02-15T02:11:35.892Z,102344.13
2023-02-15T02:14:03.228Z,102348.44
2023-02-15T02:16:52.460Z,102341.50
2023-02-15T02:19:46.893Z,102340.66
2023-02-15T02:22:20.237Z,102346.75
2023-02-15T02:25:15.179Z,102336.31
2023-02-15T02:27:57.205Z,102343.25
2023-02-15T02:30:35.842Z,102339.78
2023-02-15T02:33:18.172Z,102338.09
2023-02-15T02:36:16.553Z,102332.00
2023-02-15T02:38:54.167Z,102325.94
2023-02-15T02:41:41.264Z,102315.53
2023-02-15T02:44:43.852Z,102319.88
2023-02-15T02:47:24.931Z,102322.47
2023-02-15T02:50:05.325Z,102320.72
2023-02-15T02:52:46.762Z,102320.75
2023-02-15T02:55:17.734Z,102317.28
2023-02-15T02:57:55.498Z,102312.94
2023-02-15T03:00:24.993Z,102307.72
2023-02-15T03:02:59.399Z,102306.00
2023-02-15T03:05:28.428Z,102307.75
2023-02-15T03:07:57.917Z,102310.31
2023-02-15T03:10:25.548Z,102303.38
2023-02-15T03:12:53.042Z,102302.50
2023-02-15T03:15:26.019Z,102299.03
2023-02-15T03:17:57.765Z,102304.25
2023-02-15T03:20:34.200Z,102299.94
2023-02-15T03:23:05.566Z,102298.19
2023-02-15T03:25:35.292Z,102296.47
2023-02-15T03:28:08.171Z,102301.66
2023-02-15T03:30:36.421Z,102291.25
2023-02-15T03:33:04.634Z,102279.97
2023-02-15T03:35:40.931Z,102292.13
2023-02-15T03:38:09.032Z,102281.72
2023-02-15T03:40:58.147Z,102284.31
2023-02-15T03:43:57.376Z,102280.00
2023-02-15T03:47:08.141Z,102283.44
2023-02-15T03:50:31.295Z,102281.72
2023-02-15T03:53:00.014Z,102280.00
2023-02-15T03:55:27.251Z,102273.91
2023-02-15T03:58:12.878Z,102274.78
2023-02-15T04:01:04.403Z,102266.09
2023-02-15T04:03:34.955Z,102268.69
2023-02-15T04:06:03.602Z,102264.38
2023-02-15T04:08:49.311Z,102263.50
2023-02-15T04:11:16.453Z,102262.63
2023-02-15T04:13:43.713Z,102268.69
2023-02-15T04:16:10.918Z,102259.16
2023-02-15T04:18:58.885Z,102262.63
2023-02-15T04:21:46.121Z,102253.09
2023-02-15T04:24:32.922Z,102258.31
2023-02-15T04:27:01.232Z,102252.22
2023-02-15T04:29:29.189Z,102251.34
2023-02-15T04:31:57.973Z,102247.00
2023-02-15T04:34:25.547Z,102247.03
2023-02-15T04:36:52.900Z,102249.63
2023-02-15T04:39:20.157Z,102243.53
2023-02-15T04:41:47.387Z,102247.88
2023-02-15T04:44:14.557Z,102246.13
2023-02-15T04:46:41.686Z,102240.94
2023-02-15T04:49:09.263Z,102230.53
2023-02-15T04:51:36.416Z,102230.50
2023-02-15T04:54:03.615Z,102227.06
2023-02-15T04:56:31.034Z,102222.72
2023-02-15T04:58:58.408Z,102213.19
2023-02-15T05:01:25.573Z,102211.47
2023-02-15T05:03:52.867Z,102212.31
2023-02-15T05:06:20.046Z,102207.13
2023-02-15T05:08:47.196Z,102208.84
2023-02-15T05:11:14.366Z,102207.09
2023-02-15T05:13:41.751Z,102196.72
2023-02-15T05:16:08.892Z,102198.44
2023-02-15T05:18:36.103Z,102195.81
2023-02-15T05:21:03.475Z,102197.53
2023-02-15T05:23:30.906Z,102200.16
2023-02-15T05:26:16.801Z,102195.81
2023-02-15T05:28:44.041Z,102192.34
2023-02-15T05:31:14.184Z,102196.66
2023-02-15T05:33:42.126Z,102194.94
2023-02-15T05:36:09.557Z,102188.84
2023-02-15T05:38:40.315Z,102194.91
2023-02-15T05:41:08.634Z,102192.31
2023-02-15T05:43:36.090Z,102195.78
2023-02-15T05:46:03.876Z,102194.03
2023-02-15T05:48:31.915Z,102187.09
2023-02-15T05:51:07.415Z,102184.53
2023-02-15T05:53:37.089Z,102182.78
2023-02-15T05:56:05.435Z,102177.56
2023-02-15T05:58:35.184Z,102179.31
2023-02-15T06:01:14.494Z,102179.28
2023-02-15T06:03:42.053Z,102184.47
2023-02-15T06:06:09.564Z,102191.41
2023-02-15T06:08:37.852Z,102184.47
2023-02-15T06:11:05.491Z,102187.06
2023-02-15T06:13:34.133Z,102181.00
2023-02-15T06:16:02.443Z,102179.25
2023-02-15T06:18:29.906Z,102174.91
2023-02-15T06:20:57.047Z,102180.94
2023-02-15T06:23:24.256Z,102178.34
2023-02-15T06:25:51.587Z,102180.13
2023-02-15T06:28:18.813Z,102177.50
2023-02-15T06:30:46.041Z,102181.78
2023-02-15T06:33:13.287Z,102180.03
2023-02-15T06:35:40.516Z,102180.06
2023-02-15T06:38:07.774Z,102172.25
2023-02-15T06:40:34.985Z,102174.84
2023-02-15T06:43:02.166Z,102178.31
2023-02-15T06:45:29.299Z,102168.81
2023-02-15T06:47:56.458Z,102165.34
2023-02-15T06:50:23.648Z,102161.88
2023-02-15T06:52:50.789Z,102174.88
2023-02-15T06:55:18.134Z,102173.16
2023-02-15T06:57:45.321Z,102170.56
2023-02-15T07:00:13.100Z,102174.91
2023-02-15T07:02:40.370Z,102165.38
2023-02-15T07:05:07.853Z,102156.72
2023-02-15T07:07:35.043Z,102160.22
2023-02-15T07:10:02.319Z,102161.06
2023-02-15T07:12:45.813Z,102160.19
2023-02-15T07:15:16.181Z,102161.91
2023-02-15T07:17:43.862Z,102158.47
2023-02-15T07:20:15.925Z,102152.44
2023-02-15T07:22:44.050Z,102155.91
2023-02-15T07:25:13.350Z,102149.84
2023-02-15T07:27:40.920Z,102149.00
2023-02-15T07:30:11.319Z,102135.97
2023-02-15T07:32:58.606Z,102145.44
2023-02-15T07:35:26.021Z,102140.28
2023-02-15T07:37:54.153Z,102133.31
2023-02-15T07:40:24.167Z,102139.38
2023-02-15T07:42:55.756Z,102129.84
2023-02-15T07:45:23.316Z,102127.28
2023-02-15T07:47:50.535Z,102128.13
2023-02-15T07:50:18.880Z,102123.81
2023-02-15T07:52:46.051Z,102122.97
2023-02-15T07:55:13.934Z,102119.50
2023-02-15T07:57:45.722Z,102116.91
2023-02-15T08:00:15.249Z,102109.13
2023-02-15T08:02:42.771Z,102109.09
2023-02-15T08:05:10.020Z,102107.41
2023-02-15T08:07:37.247Z,102103.97
2023-02-15T08:10:04.842Z,102108.31
2023-02-15T08:12:32.023Z,102111.75
2023-02-15T08:14:59.568Z,102113.47
2023-02-15T08:17:26.705Z,102114.34
2023-02-15T08:19:53.953Z,102113.47
2023-02-15T08:22:21.165Z,102119.50
2023-02-15T08:24:48.432Z,102116.94
2023-02-15T08:27:15.717Z,102110.03
2023-02-15T08:29:43.215Z,102114.38
2023-02-15T08:32:12.946Z,102113.50
2023-02-15T08:34:41.921Z,102110.06
2023-02-15T08:37:10.241Z,102102.28
2023-02-15T08:39:37.892Z,102097.06
2023-02-15T08:42:05.245Z,102103.97
2023-02-15T08:44:32.481Z,102098.78
2023-02-15T08:47:04.451Z,102096.19
2023-02-15T08:49:31.833Z,102086.69
2023-02-15T08:51:59.061Z,102077.22
2023-02-15T08:54:26.401Z,102084.13
2023-02-15T08:56:53.844Z,102081.56
2023-02-15T08:59:22.722Z,102075.50
2023-02-15T09:01:52.102Z,102072.94
2023-02-15T09:04:20.173Z,102064.25
2023-02-15T09:06:49.408Z,102068.59
2023-02-15T09:09:17.970Z,102061.69
2023-02-15T09:11:47.761Z,102059.09
2023-02-15T09:14:21.227Z,102066.88
2023-02-15T09:16:52.578Z,102072.97
2023-02-15T09:19:21.408Z,102069.47
2023-02-15T09:21:49.323Z,102066.03
2023-02-15T09:24:17.696Z,102066.91
2023-02-15T09:26:46.621Z,102066.91
2023-02-15T09:29:14.970Z,102068.63
2023-02-15T09:31:45.635Z,102060.84
2023-02-15T09:34:14.348Z,102063.44
2023-02-15T09:36:42.108Z,102075.53
2023-02-15T09:39:15.028Z,102065.16
2023-02-15T09:41:59.237Z,102072.94
2023-02-15T09:45:04.851Z,102073.81
2023-02-15T09:47:57.639Z,102077.25
2023-02-15T09:50:37.016Z,102077.25
2023-02-15T09:53:15.916Z,102078.94
2023-02-15T09:55:46.190Z,102063.34
2023-02-15T09:58:28.137Z,102063.34
2023-02-15T10:01:35.766Z,102066.81
2023-02-15T10:04:28.759Z,102070.28
2023-02-15T10:07:12.770Z,102062.44
2023-02-15T10:09:48.037Z,102057.22
2023-02-15T10:12:29.025Z,102059.81
2023-02-15T10:15:12.704Z,102060.63
2023-02-15T10:18:01.358Z,102066.69
2023-02-15T10:21:03.682Z,102054.47
2023-02-15T10:23:34.000Z,102039.69
2023-02-15T10:26:19.019Z,102035.28
2023-02-15T10:28:57.974Z,102040.44
2023-02-15T10:31:32.417Z,102039.47
2023-02-15T10:34:19.941Z,102026.38
2023-02-15T10:36:49.780Z,102028.03
2023-02-15T10:39:39.780Z,102023.66
2023-02-15T10:42:42.102Z,102016.66
2023-02-15T10:45:19.220Z,102020.06
2023-02-15T10:48:11.004Z,102023.44
2023-02-15T10:50:46.833Z,102014.75
2023-02-15T10:53:51.418Z,102012.03
2023-02-15T10:56:27.821Z,102006.69
2023-02-15T10:58:54.824Z,102010.84
2023-02-15T11:01:37.075Z,102009.97
2023-02-15T11:04:40.734Z,102003.00
2023-02-15T11:07:15.288Z,102000.25
2023-02-15T11:09:46.233Z,101998.31
2023-02-15T11:12:23.543Z,101992.97
2023-02-15T11:14:58.668Z,101982.28
2023-02-15T11:17:30.321Z,101981.22
2023-02-15T11:20:20.356Z,101973.97
2023-02-15T11:22:51.150Z,101981.44
2023-02-15T11:25:22.931Z,101977.50
2023-02-15T11:27:50.864Z,101972.84
2023-02-15T11:30:23.828Z,101982.00
2023-02-15T11:32:59.979Z,101978.34
2023-02-15T11:35:33.840Z,101967.56
2023-02-15T11:38:17.718Z,101967.19
2023-02-15T11:40:57.505Z,101959.69
2023-02-15T11:43:41.306Z,101951.50
2023-02-15T11:46:12.037Z,101951.78
2023-02-15T11:48:40.122Z,101941.53
2023-02-15T11:51:13.753Z,101942.91
2023-02-15T11:53:40.968Z,101942.44
2023-02-15T11:56:15.357Z,101947.94
2023-02-15T11:58:44.299Z,101947.31
2023-02-15T12:01:36.085Z,101940.50
2023-02-15T12:04:14.653Z,101944.94
2023-02-15T12:06:52.239Z,101944.78
2023-02-15T12:09:38.463Z,101947.41
2023-02-15T12:12:21.003Z,101940.19
2023-02-15T12:14:50.480Z,101940.34
2023-02-15T12:17:18.701Z,101944.75
2023-02-15T12:19:46.410Z,101939.19
2023-02-15T12:22:26.935Z,101929.13
2023-02-15T12:24:57.857Z,101925.06
2023-02-15T12:27:28.280Z,101926.56
2023-02-15T12:30:03.299Z,101920.25
2023-02-15T12:32:36.640Z,101919.47
2023-02-15T12:35:10.729Z,101923.72
2023-02-15T12:37:38.378Z,101914.03
2023-02-15T12:40:22.317Z,101910.72
2023-02-15T12:42:49.545Z,101902.91
2023-02-15T12:45:34.668Z,101896.75
2023-02-15T12:48:14.002Z,101893.22
2023-02-15T12:50:42.522Z,101898.38
2023-02-15T12:53:15.548Z,101887.97
2023-02-15T12:56:00.470Z,101889.50
2023-02-15T12:58:31.044Z,101883.19
2023-02-15T13:01:10.621Z,101876.00
2023-02-15T13:03:41.260Z,101879.06
2023-02-15T13:06:09.346Z,101872.88
2023-02-15T13:08:47.550Z,101873.31
2023-02-15T13:11:21.616Z,101872.59
2023-02-15T13:13:54.532Z,101863.94
2023-02-15T13:16:37.826Z,101857.88
2023-02-15T13:19:13.535Z,101850.88
2023-02-15T13:21:44.448Z,101852.03
2023-02-15T13:24:36.117Z,101854.88
2023-02-15T13:27:15.003Z,101843.50
2023-02-15T13:29:45.185Z,101839.41
2023-02-15T13:32:34.813Z,101837.75
2023-02-15T13:35:03.538Z,101832.03
2023-02-15T13:38:03.080Z,101829.34
2023-02-15T13:41:10.544Z,101827.19
2023-02-15T13:43:53.629Z,101832.94
2023-02-15T13:46:36.872Z,101830.00
2023-02-15T13:49:22.748Z,101814.66
2023-02-15T13:52:08.759Z,101815.75
2023-02-15T13:54:54.088Z,101816.19
2023-02-15T13:57:39.891Z,101812.00
2023-02-15T14:00:15.328Z,101824.53
2023-02-15T14:03:04.344Z,101824.25
2023-02-15T14:05:40.697Z,101830.28
2023-02-15T14:08:39.596Z,101825.13
2023-02-15T14:11:16.476Z,101824.97
2023-02-15T14:14:25.001Z,101835.25
2023-02-15T14:17:09.181Z,101833.56
2023-02-15T14:20:10.603Z,101826.72
2023-02-15T14:22:46.719Z,101823.53
2023-02-15T14:25:22.639Z,101821.16
2023-02-15T14:28:22.947Z,101812.44
2023-02-15T14:30:51.722Z,101813.47
2023-02-15T14:33:35.864Z,101816.00
2023-02-15T14:36:07.557Z,101801.22
2023-02-15T14:39:06.224Z,101807.63
2023-02-15T14:41:45.470Z,101796.84
2023-02-15T14:44:24.521Z,101801.16
2023-02-15T14:46:59.126Z,101796.09
2023-02-15T14:49:28.760Z,101797.97
2023-02-15T14:51:58.885Z,101793.44
2023-02-15T14:54:26.032Z,101797.59
2023-02-15T14:57:02.352Z,101794.66
2023-02-15T14:59:51.080Z,101786.72
2023-02-15T15:02:47.851Z,101785.34
2023-02-15T15:05:33.253Z,101781.81
2023-02-15T15:08:01.785Z,101789.56
2023-02-15T15:10:41.835Z,101782.38
2023-02-15T15:13:31.794Z,101778.59
2023-02-15T15:16:31.605Z,101772.47
2023-02-15T15:18:59.825Z,101765.75
2023-02-15T15:21:51.832Z,101767.13
2023-02-15T15:24:37.494Z,101765.56
2023-02-15T15:27:38.587Z,101775.81
2023-02-15T15:30:14.678Z,101785.53
2023-02-15T15:32:53.758Z,101789.56
2023-02-15T15:35:48.523Z,101791.25
2023-02-15T15:38:54.419Z,101787.91
2023-02-15T15:42:09.211Z,101784.19
2023-02-15T15:44:51.454Z,101783.22
2023-02-15T15:47:51.244Z,101792.13
2023-02-15T15:50:21.412Z,101789.31
2023-02-15T15:52:52.383Z,101786.44
2023-02-15T15:55:23.331Z,101782.31
2023-02-15T15:57:53.485Z,101783.31
2023-02-15T16:00:43.573Z,101782.69
2023-02-15T16:03:21.523Z,101776.06
2023-02-15T16:05:53.801Z,101764.97
2023-02-15T16:08:39.321Z,101762.72
2023-02-15T16:11:17.962Z,101759.44
2023-02-15T16:13:45.306Z,101765.78
2023-02-15T16:16:14.120Z,101747.75
2023-02-15T16:18:43.358Z,101744.84
2023-02-15T16:21:19.567Z,101740.91
2023-02-15T16:23:55.893Z,101743.84
2023-02-15T16:26:41.578Z,101745.91
2023-02-15T16:29:16.618Z,101742.88
2023-02-15T16:31:44.005Z,101737.09
2023-02-15T16:34:18.435Z,101747.13
2023-02-15T16:36:45.583Z,101749.41
2023-02-15T16:39:20.435Z,101745.78
2023-02-15T16:41:48.497Z,101742.06
2023-02-15T16:44:20.814Z,101743.50
2023-02-15T16:46:51.007Z,101741.31
2023-02-15T16:49:23.956Z,101739.31
2023-02-15T16:52:02.351Z,101738.84
2023-02-15T16:54:32.175Z,101738.50
2023-02-15T16:56:59.532Z,101743.00
2023-02-15T16:59:34.849Z,101744.13
2023-02-15T17:02:06.026Z,101744.25
2023-02-15T17:04:35.468Z,101742.72
2023-02-15T17:07:15.359Z,101749.97
2023-02-15T17:09:56.523Z,101757.31
2023-02-15T17:12:46.437Z,101756.25
2023-02-15T17:15:32.205Z,101754.66
2023-02-15T17:18:20.120Z,101749.75
2023-02-15T17:20:49.316Z,101741.16
2023-02-15T17:23:43.270Z,101742.97
2023-02-15T17:26:20.814Z,101742.97
2023-02-15T17:28:51.221Z,101741.34
2023-02-15T17:31:20.280Z,101730.00
2023-02-15T17:33:48.158Z,101732.91
2023-02-15T17:36:23.109Z,101735.78
2023-02-15T17:38:59.981Z,101733.56
2023-02-15T17:41:31.342Z,101739.09
2023-02-15T17:44:01.592Z,101728.75
2023-02-15T17:46:37.478Z,101732.38
2023-02-15T17:49:05.394Z,101725.44
2023-02-15T17:51:35.799Z,101739.47
2023-02-15T17:54:22.878Z,101735.25
2023-02-15T17:56:50.482Z,101744.25
2023-02-15T17:59:17.813Z,101732.13
2023-02-15T18:02:06.536Z,101737.44
2023-02-15T18:04:53.548Z,101739.38
2023-02-15T18:07:40.128Z,101734.28
2023-02-15T18:10:34.166Z,101735.47
2023-02-15T18:13:01.461Z,101730.47
2023-02-15T18:15:29.258Z,101727.22
2023-02-15T18:17:58.419Z,101736.09
2023-02-15T18:20:32.098Z,101731.94
2023-02-15T18:22:59.311Z,101736.31
2023-02-15T18:25:26.546Z,101725.88
2023-02-15T18:27:55.587Z,101728.69
2023-02-15T18:30:25.609Z,101724.50
2023-02-15T18:32:57.777Z,101719.41
2023-02-15T18:35:29.794Z,101713.41
2023-02-15T18:38:00.823Z,101717.00
2023-02-15T18:40:28.875Z,101724.06
2023-02-15T18:42:59.387Z,101720.63
2023-02-15T18:45:37.426Z,101720.69
2023-02-15T18:48:09.376Z,101716.59
2023-02-15T18:50:37.783Z,101718.66
2023-02-15T18:53:06.892Z,101715.19
2023-02-15T18:55:35.574Z,101708.09
2023-02-15T18:58:02.931Z,101712.41
2023-02-15T19:00:32.716Z,101714.19
2023-02-15T19:03:01.466Z,101715.22
2023-02-15T19:05:29.782Z,101708.41
2023-02-15T19:07:57.760Z,101705.91
2023-02-15T19:10:27.274Z,101701.72
2023-02-15T19:12:56.045Z,101703.56
2023-02-15T19:15:25.682Z,101697.47
2023-02-15T19:17:53.800Z,101693.22
2023-02-15T19:20:23.268Z,101696.78
2023-02-15T19:22:51.886Z,101697.63
2023-02-15T19:25:22.344Z,101691.59
2023-02-15T19:27:50.118Z,101688.19
2023-02-15T19:30:35.201Z,101680.56
2023-02-15T19:33:04.979Z,101672.81
2023-02-15T19:35:35.197Z,101678.91
2023-02-15T19:38:05.955Z,101668.50
2023-02-15T19:40:34.716Z,101668.56
2023-02-15T19:43:02.785Z,101667.00
2023-02-15T19:45:31.779Z,101667.19
2023-02-15T19:48:01.208Z,101668.19
2023-02-15T19:50:31.299Z,101659.63
2023-02-15T19:52:58.558Z,101653.66
2023-02-15T19:55:29.166Z,101649.28
2023-02-15T19:57:57.882Z,101642.47
2023-02-15T20:00:26.352Z,101643.47
2023-02-15T20:02:54.015Z,101653.16
2023-02-15T20:05:21.511Z,101648.13
2023-02-15T20:07:51.078Z,101642.09
2023-02-15T20:10:25.010Z,101632.63
2023-02-15T20:12:52.272Z,101628.50
2023-02-15T20:15:22.886Z,101623.44
2023-02-15T20:17:50.730Z,101620.06
2023-02-15T20:20:21.109Z,101622.78
2023-02-15T20:22:50.516Z,101617.56
2023-02-15T20:25:23.333Z,101616.84
2023-02-15T20:27:50.585Z,101615.13
2023-02-15T20:30:23.150Z,101620.69
2023-02-15T20:32:50.873Z,101616.56
2023-02-15T20:35:23.234Z,101619.34
2023-02-15T20:37:55.272Z,101622.88
2023-02-15T20:40:28.589Z,101618.56
2023-02-15T20:42:56.060Z,101625.63
2023-02-15T20:45:25.436Z,101618.63
2023-02-15T20:47:53.353Z,101621.31
2023-02-15T20:50:29.541Z,101626.59
2023-02-15T20:52:58.732Z,101629.34
2023-02-15T20:55:29.045Z,101618.13
2023-02-15T20:57:57.272Z,101626.03
2023-02-15T21:00:29.367Z,101629.66
2023-02-15T21:02:59.031Z,101634.91
2023-02-15T21:05:32.816Z,101629.69
2023-02-15T21:08:01.921Z,101625.31
2023-02-15T21:10:32.211Z,101632.31
2023-02-15T21:13:00.113Z,101629.69
2023-02-15T21:15:34.228Z,101630.66
2023-02-15T21:18:07.274Z,101630.66
2023-02-15T21:20:34.771Z,101631.63
2023-02-15T21:23:04.156Z,101623.03
2023-02-15T21:25:36.025Z,101619.50
2023-02-15T21:28:04.304Z,101611.66
2023-02-15T21:30:31.896Z,101614.28
2023-02-15T21:32:59.109Z,101613.44
2023-02-15T21:35:26.287Z,101620.47
2023-02-15T21:37:53.770Z,101617.06
2023-02-15T21:40:27.634Z,101628.38
2023-02-15T21:43:13.258Z,101630.13
2023-02-15T21:45:59.375Z,101619.69
2023-02-15T21:48:26.385Z,101622.41
2023-02-15T21:51:12.864Z,101623.47
2023-02-15T21:53:45.930Z,101628.72
2023-02-15T21:56:20.566Z,101626.19
2023-02-15T21:58:48.302Z,101618.34
2023-02-15T22:01:23.688Z,101625.28
2023-02-15T22:03:51.351Z,101616.69
2023-02-15T22:06:18.483Z,101618.59
2023-02-15T22:08:47.837Z,101619.53
2023-02-15T22:11:18.477Z,101620.50
2023-02-15T22:13:46.637Z,101621.44
2023-02-15T22:16:19.030Z,101621.50
2023-02-15T22:18:46.896Z,101622.34
2023-02-15T22:21:16.648Z,101612.91
2023-02-15T22:23:43.884Z,101606.88
2023-02-15T22:26:22.572Z,101612.91
2023-02-15T22:28:50.027Z,101610.25
2023-02-15T22:31:21.243Z,101603.25
2023-02-15T22:33:51.523Z,101603.25
2023-02-15T22:36:27.426Z,101605.78
2023-02-15T22:38:54.828Z,101601.44
2023-02-15T22:41:27.842Z,101604.97
2023-02-15T22:43:55.339Z,101604.97
2023-02-15T22:46:24.286Z,101606.81
2023-02-15T22:48:52.166Z,101609.59
2023-02-15T22:51:22.408Z,101607.84
2023-02-15T22:53:51.781Z,101600.00
2023-02-15T22:56:23.291Z,101598.28
2023-02-15T22:58:50.679Z,101585.38
2023-02-15T23:01:31.208Z,101594.19
2023-02-15T23:03:59.479Z,101591.59
2023-02-15T23:06:28.819Z,101588.09
2023-02-15T23:08:57.005Z,101588.97
2023-02-15T23:11:24.250Z,101585.59
2023-02-15T23:13:51.412Z,101583.94
2023-02-15T23:16:19.084Z,101586.56
2023-02-15T23:18:47.241Z,101587.59
2023-02-15T23:21:23.110Z,101588.56
2023-02-15T23:23:52.519Z,101592.13
2023-02-15T23:26:23.881Z,101592.19
2023-02-15T23:28:52.057Z,101590.47
2023-02-15T23:31:23.508Z,101598.31
2023-02-15T23:33:52.453Z,101593.22
2023-02-15T23:36:25.253Z,101595.94
2023-02-15T23:38:54.237Z,101590.75
2023-02-15T23:41:24.882Z,101589.00
2023-02-15T23:43:57.093Z,101595.09
2023-02-15T23:46:29.876Z,101594.19
2023-02-15T23:48:57.500Z,101594.22
2023-02-15T23:51:29.683Z,101589.88
2023-02-15T23:53:57.956Z,101590.81
2023-02-15T23:56:25.101Z,101591.84
2023-02-15T23:58:52.306Z,101589.38
